Time;durP1;ratioP1;P1;durP2;ratioP2;P2;SDS_P1;SDS_P2;PMS_P1;PMS_P2;Temp;Humidity;BMP_temperature;BMP_pressure;BME280_temperature;BME280_humidity;BME280_pressure;Samples;Min_cycle;Max_cycle;Signal;HPM_P1;HPM_P2
2022/10/02 00:02:18;;;;;;;38.80;4.78;;;;;;;10.38;100.00;101322.66;4912096;29;20385;-87
2022/10/02 00:04:53;;;;;;;35.13;4.40;;;;;;;10.44;100.00;101339.63;4895576;29;20041;-86
2022/10/02 00:07:25;;;;;;;39.13;4.35;;;;;;;10.35;100.00;101333.00;4895829;29;20342;-86
2022/10/02 00:09:59;;;;;;;36.23;4.33;;;;;;;10.33;100.00;101330.59;4878136;29;20032;-86
2022/10/02 00:12:28;;;;;;;32.60;4.50;;;;;;;10.43;100.00;101329.97;4885486;29;20351;-86
2022/10/02 00:15:01;;;;;;;39.63;4.90;;;;;;;10.40;100.00;101338.47;4906365;29;20049;-86
2022/10/02 00:17:33;;;;;;;39.13;4.75;;;;;;;10.37;100.00;101338.94;4895481;29;20029;-85
2022/10/02 00:20:00;;;;;;;39.15;4.60;;;;;;;10.31;100.00;101346.09;4900667;29;20024;-86
2022/10/02 00:22:53;;;;;;;37.47;4.70;;;;;;;10.38;100.00;101352.13;4896665;29;20028;-86
2022/10/02 00:25:39;;;;;;;37.78;4.18;;;;;;;10.33;100.00;101352.00;4895555;29;20131;-86
2022/10/02 00:28:30;;;;;;;38.30;4.20;;;;;;;10.25;100.00;101358.59;4879704;29;20037;-86
2022/10/02 00:31:40;;;;;;;40.75;4.03;;;;;;;10.20;100.00;101352.34;4908797;29;20076;-86
2022/10/02 00:34:20;;;;;;;43.83;4.47;;;;;;;10.29;100.00;101358.91;4899415;29;20037;-85
2022/10/02 00:37:10;;;;;;;44.20;4.50;;;;;;;10.32;100.00;101371.03;4901025;29;20036;-86
2022/10/02 00:39:50;;;;;;;39.87;4.33;;;;;;;10.36;100.00;101364.94;4902583;29;20715;-86
2022/10/02 00:42:52;;;;;;;37.30;3.75;;;;;;;10.35;100.00;101365.97;4901279;29;20043;-86
2022/10/02 00:45:32;;;;;;;45.78;5.25;;;;;;;10.48;100.00;101370.25;4897747;29;20040;-86
2022/10/02 00:48:14;;;;;;;45.25;5.68;;;;;;;10.40;100.00;101350.03;4895334;29;20072;-86
2022/10/02 00:51:13;;;;;;;44.83;4.78;;;;;;;10.48;100.00;101361.38;4904947;29;21245;-86
2022/10/02 00:54:20;;;;;;;48.50;4.30;;;;;;;10.43;100.00;101352.19;4895346;29;20036;-86
2022/10/02 00:57:08;;;;;;;48.38;5.18;;;;;;;10.56;100.00;101364.47;4907122;29;20036;-86
2022/10/02 01:00:00;;;;;;;52.63;4.70;;;;;;;10.56;100.00;101358.31;4912402;29;20547;-86
2022/10/02 01:02:25;;;;;;;37.80;4.35;;;;;;;10.54;100.00;101355.06;4906757;29;20096;-87
2022/10/02 01:04:51;;;;;;;36.40;4.40;;;;;;;10.52;100.00;101362.53;4895231;29;20119;-86
2022/10/02 01:07:17;;;;;;;37.73;4.50;;;;;;;10.48;100.00;101366.72;4893802;29;20028;-86
2022/10/02 01:09:43;;;;;;;39.23;4.33;;;;;;;10.48;100.00;101354.16;4888777;29;20356;-86
2022/10/02 01:12:09;;;;;;;48.63;5.13;;;;;;;10.50;100.00;101367.31;4908322;29;20112;-86
2022/10/02 01:14:39;;;;;;;41.67;4.50;;;;;;;10.46;100.00;101358.94;4894262;29;20035;-86
2022/10/02 01:17:28;;;;;;;45.20;5.20;;;;;;;10.50;100.00;101364.63;4878773;29;20028;-86
2022/10/02 01:19:54;;;;;;;46.53;4.27;;;;;;;10.55;100.00;101352.13;4897522;29;20073;-86
2022/10/02 01:22:30;;;;;;;45.43;4.17;;;;;;;10.61;100.00;101355.69;4911842;29;20304;-86
2022/10/02 01:24:59;;;;;;;56.00;4.90;;;;;;;10.67;100.00;101365.44;4903916;29;20037;-86
2022/10/02 01:27:26;;;;;;;40.80;5.35;;;;;;;10.71;100.00;101361.22;4906432;29;20424;-86
2022/10/02 01:29:59;;;;;;;50.40;4.72;;;;;;;10.67;100.00;101348.56;4911341;29;20024;-86
2022/10/02 01:32:27;;;;;;;47.95;4.45;;;;;;;10.77;100.00;101354.03;4912253;29;20095;-86
2022/10/02 01:34:53;;;;;;;55.38;5.32;;;;;;;10.78;100.00;101354.84;4913525;29;20024;-87
2022/10/02 01:37:22;;;;;;;50.15;5.13;;;;;;;10.83;100.00;101362.97;4913138;29;20392;-86
2022/10/02 01:39:48;;;;;;;48.42;4.90;;;;;;;10.81;100.00;101355.19;4907019;29;20072;-86
2022/10/02 01:42:14;;;;;;;36.30;4.75;;;;;;;10.85;100.00;101360.84;4905067;29;20108;-85
2022/10/02 01:44:41;;;;;;;44.90;4.67;;;;;;;10.80;100.00;101360.78;4896060;29;20579;-84
2022/10/02 01:47:25;;;;;;;42.03;4.13;;;;;;;10.75;100.00;101362.34;4911953;29;20300;-85
2022/10/02 01:50:15;;;;;;;55.95;5.38;;;;;;;10.86;100.00;101365.97;4909543;29;20036;-86
2022/10/02 01:53:13;;;;;;;53.85;4.80;;;;;;;10.84;100.00;101360.06;4898846;29;20047;-85
2022/10/02 01:55:53;;;;;;;30.60;4.35;;;;;;;10.91;100.00;101370.59;4876941;29;20719;-85
2022/10/02 01:58:29;;;;;;;47.03;4.55;;;;;;;10.88;100.00;101365.72;4896346;29;20064;-85
2022/10/02 02:01:15;;;;;;;50.42;4.70;;;;;;;10.89;100.00;101373.50;4894039;29;20044;-85
2022/10/02 02:03:53;;;;;;;41.45;4.95;;;;;;;10.89;100.00;101376.19;4904649;29;20108;-85
2022/10/02 02:06:30;;;;;;;55.75;4.85;;;;;;;10.88;100.00;101376.47;4894372;29;20109;-84
2022/10/02 02:09:11;;;;;;;44.83;4.80;;;;;;;10.92;100.00;101377.59;4900343;29;20096;-84
2022/10/02 02:11:44;;;;;;;47.63;4.73;;;;;;;10.88;100.00;101365.72;4906291;29;20455;-83
2022/10/02 02:14:19;;;;;;;58.27;4.80;;;;;;;10.95;100.00;101366.38;4906329;29;20300;-84
2022/10/02 02:16:55;;;;;;;54.47;5.00;;;;;;;11.02;100.00;101367.00;4910820;29;20040;-84
2022/10/02 02:19:23;;;;;;;44.08;4.85;;;;;;;11.03;100.00;101373.97;4912953;29;20043;-83
2022/10/02 02:21:59;;;;;;;66.47;5.22;;;;;;;11.05;100.00;101369.19;4916455;29;20024;-83
2022/10/02 02:24:43;;;;;;;54.90;6.20;;;;;;;11.01;100.00;101368.06;4916302;29;20114;-84
2022/10/02 02:27:13;;;;;;;48.10;4.88;;;;;;;11.19;100.00;101371.50;4916139;29;20036;-83
2022/10/02 02:29:41;;;;;;;59.30;5.40;;;;;;;11.19;100.00;101382.22;4892380;29;20024;-83
2022/10/02 02:32:09;;;;;;;46.03;5.05;;;;;;;11.17;100.00;101362.88;4910432;29;20122;-84
2022/10/02 02:34:41;;;;;;;50.28;5.35;;;;;;;11.27;100.00;101372.94;4908837;29;20064;-85
2022/10/02 02:37:12;;;;;;;47.20;5.47;;;;;;;11.34;100.00;101377.06;4898116;29;20032;-87
2022/10/02 02:39:54;;;;;;;46.00;4.97;;;;;;;11.37;100.00;101375.75;4912501;29;20396;-86
2022/10/02 02:42:24;;;;;;;42.78;5.10;;;;;;;11.43;100.00;101376.63;4924354;29;20574;-86
2022/10/02 02:45:06;;;;;;;48.22;5.65;;;;;;;11.48;100.00;101374.03;4910935;29;20479;-86
2022/10/02 02:47:43;;;;;;;50.85;5.13;;;;;;;11.53;100.00;101371.38;4912719;29;20031;-86
2022/10/02 02:50:32;;;;;;;38.65;4.95;;;;;;;11.46;100.00;101357.34;4917889;29;20039;-86
2022/10/02 02:53:03;;;;;;;43.92;4.40;;;;;;;11.43;100.00;101365.91;4921493;29;20035;-86
2022/10/02 02:55:36;;;;;;;35.03;4.30;;;;;;;11.36;100.00;101366.88;4928176;29;20032;-86
2022/10/02 02:58:15;;;;;;;30.58;4.00;;;;;;;11.36;100.00;101376.81;4915880;29;20028;-86
2022/10/02 03:00:40;;;;;;;32.28;4.55;;;;;;;11.37;100.00;101381.13;4881365;29;20392;-86
2022/10/02 03:03:06;;;;;;;24.43;3.77;;;;;;;11.36;100.00;101383.00;4908359;29;20040;-86
2022/10/02 03:05:33;;;;;;;19.97;4.17;;;;;;;11.41;100.00;101386.81;4901755;29;20036;-86
2022/10/02 03:08:02;;;;;;;22.50;3.45;;;;;;;11.40;100.00;101387.88;4916061;29;20032;-85
2022/10/02 03:10:49;;;;;;;25.30;3.78;;;;;;;11.28;100.00;101372.72;4902580;29;20036;-86
2022/10/02 03:13:50;;;;;;;22.20;3.13;;;;;;;11.33;100.00;101380.00;4911578;29;20032;-86
2022/10/02 03:16:28;;;;;;;20.80;3.30;;;;;;;11.27;100.00;101381.00;4906255;29;20430;-86
2022/10/02 03:19:16;;;;;;;19.25;2.85;;;;;;;11.14;100.00;101379.47;4910822;29;20493;-86
2022/10/02 03:21:51;;;;;;;24.35;2.90;;;;;;;11.09;100.00;101390.16;4915910;29;20567;-85
2022/10/02 03:24:26;;;;;;;22.15;3.72;;;;;;;10.97;100.00;101385.69;4913846;29;20028;-85
2022/10/02 03:27:09;;;;;;;18.50;2.50;;;;;;;10.89;100.00;101392.28;4915830;29;20028;-86
2022/10/02 03:29:57;;;;;;;20.90;2.70;;;;;;;10.89;100.00;101380.75;4912634;29;20288;-85
2022/10/02 03:32:25;;;;;;;22.08;2.75;;;;;;;10.94;100.00;101388.88;4911872;29;20047;-85
2022/10/02 03:34:51;;;;;;;15.57;2.30;;;;;;;10.95;100.00;101392.38;4903101;29;20032;-85
2022/10/02 03:37:17;;;;;;;15.98;2.80;;;;;;;10.96;100.00;101381.38;4896131;29;20404;-85
2022/10/02 03:39:43;;;;;;;18.63;2.67;;;;;;;10.96;100.00;101384.06;4895094;29;20025;-85
2022/10/02 03:42:13;;;;;;;18.70;3.30;;;;;;;11.03;100.00;101389.28;4897757;29;20036;-86
2022/10/02 03:44:38;;;;;;;12.13;3.03;;;;;;;11.04;100.00;101390.91;4897122;29;20032;-85
2022/10/02 03:47:04;;;;;;;38.13;4.20;;;;;;;11.12;100.00;101393.16;4914181;29;20039;-86
2022/10/02 03:49:29;;;;;;;16.00;3.60;;;;;;;11.13;100.00;101412.75;4913894;29;20055;-86
2022/10/02 03:51:54;;;;;;;50.90;4.30;;;;;;;11.14;100.00;101409.81;4898846;29;20111;-86
2022/10/02 03:54:21;;;;;;;19.03;3.60;;;;;;;11.13;100.00;101410.88;4896612;29;20093;-84
2022/10/02 03:56:55;;;;;;;22.50;4.10;;;;;;;11.11;100.00;101412.97;4896518;29;20035;-85
2022/10/02 03:59:38;;;;;;;19.27;3.92;;;;;;;11.06;100.00;101403.00;4902161;29;20028;-84
2022/10/02 04:02:11;;;;;;;15.73;4.20;;;;;;;11.04;100.00;101410.47;4895955;29;20549;-84
2022/10/02 04:04:45;;;;;;;20.83;4.63;;;;;;;11.01;100.00;101407.47;4904385;29;20036;-84
2022/10/02 04:07:20;;;;;;;21.17;4.72;;;;;;;10.93;100.00;101395.31;4912409;29;20036;-85
2022/10/02 04:10:19;;;;;;;19.58;5.20;;;;;;;10.94;100.00;101410.34;4912056;29;20032;-84
2022/10/02 04:12:51;;;;;;;12.30;4.90;;;;;;;10.84;100.00;101400.28;4914869;29;20511;-85
2022/10/02 04:15:34;;;;;;;21.53;4.80;;;;;;;10.87;100.00;101405.13;4908389;29;20297;-84
2022/10/02 04:18:06;;;;;;;18.45;5.40;;;;;;;10.77;100.00;101401.50;4895779;29;20473;-84
2022/10/02 04:20:56;;;;;;;25.10;7.07;;;;;;;10.76;100.00;101411.41;4899499;29;20406;-84
2022/10/02 04:23:31;;;;;;;27.30;8.20;;;;;;;10.70;100.00;101402.47;4908058;29;20251;-84
2022/10/02 04:26:03;;;;;;;27.60;8.68;;;;;;;10.69;100.00;101387.44;4914491;29;20047;-85
2022/10/02 04:28:41;;;;;;;30.92;9.38;;;;;;;10.79;100.00;101399.34;4914118;29;20036;-84
2022/10/02 04:31:11;;;;;;;37.67;10.85;;;;;;;10.84;100.00;101391.41;4895319;29;20033;-85
2022/10/02 04:33:36;;;;;;;34.80;12.07;;;;;;;10.83;100.00;101387.09;4895044;29;20169;-85
2022/10/02 04:36:31;;;;;;;36.00;11.83;;;;;;;10.88;100.00;101403.25;4902324;29;20560;-85
2022/10/02 04:39:12;;;;;;;37.55;12.38;;;;;;;10.91;100.00;101405.47;4878186;29;20033;-85
2022/10/02 04:42:03;;;;;;;36.08;12.95;;;;;;;10.96;100.00;101405.50;4912229;29;20056;-85
2022/10/02 04:44:43;;;;;;;41.58;12.88;;;;;;;10.98;100.00;101407.97;4912179;29;20365;-85
2022/10/02 04:47:22;;;;;;;44.93;14.13;;;;;;;11.05;100.00;101416.63;4895340;29;20032;-85
2022/10/02 04:50:18;;;;;;;43.13;13.03;;;;;;;11.05;100.00;101430.88;4905154;29;20296;-85
2022/10/02 04:53:00;;;;;;;43.97;13.85;;;;;;;11.12;100.00;101427.22;4908217;29;20039;-85
2022/10/02 04:55:37;;;;;;;55.10;15.73;;;;;;;11.17;100.00;101427.25;4895240;29;20490;-85
2022/10/02 04:58:12;;;;;;;50.55;16.63;;;;;;;11.23;100.00;101436.22;4898761;29;20027;-85
2022/10/02 05:01:24;;;;;;;50.88;18.23;;;;;;;11.26;100.00;101435.69;4910563;29;20119;-85
2022/10/02 05:04:16;;;;;;;61.42;18.33;;;;;;;11.28;100.00;101438.94;4858161;29;20168;-85
2022/10/02 05:07:10;;;;;;;61.58;19.55;;;;;;;11.27;100.00;101442.69;4907021;29;20064;-85
2022/10/02 05:09:51;;;;;;;59.75;19.80;;;;;;;11.28;100.00;101445.16;4910106;29;20063;-85
2022/10/02 05:12:37;;;;;;;74.00;22.02;;;;;;;11.26;100.00;101439.22;4909756;29;20051;-85
2022/10/02 05:15:11;;;;;;;79.30;22.43;;;;;;;11.32;100.00;101440.09;4909149;29;20055;-85
2022/10/02 05:17:55;;;;;;;68.40;21.77;;;;;;;11.29;100.00;101440.56;4894815;29;20288;-85
2022/10/02 05:20:59;;;;;;;63.28;19.92;;;;;;;11.20;100.00;101429.47;4881037;29;20047;-84
2022/10/02 05:23:43;;;;;;;70.60;19.80;;;;;;;11.30;100.00;101440.34;4878205;29;20044;-86
2022/10/02 05:26:38;;;;;;;65.35;19.98;;;;;;;11.24;100.00;101435.97;4878716;29;20124;-86
2022/10/02 05:29:26;;;;;;;70.38;21.45;;;;;;;11.29;100.00;101441.41;4889457;29;20039;-86
2022/10/02 05:32:07;;;;;;;74.80;21.95;;;;;;;11.32;100.00;101456.19;4905547;29;20107;-85
2022/10/02 05:34:53;;;;;;;73.72;21.45;;;;;;;11.33;100.00;101458.59;4894217;29;20024;-85
2022/10/02 05:37:27;;;;;;;74.38;21.35;;;;;;;11.36;100.00;101458.13;4895918;29;20810;-93
2022/10/02 05:40:19;;;;;;;79.55;21.02;;;;;;;11.35;100.00;101456.50;4904975;29;20036;-92
2022/10/02 05:42:59;;;;;;;78.83;19.70;;;;;;;11.39;100.00;101456.84;4909734;29;20043;-93
2022/10/02 05:45:37;;;;;;;77.03;20.27;;;;;;;11.49;100.00;101474.94;4904815;29;20309;-94
2022/10/02 05:48:11;;;;;;;78.60;20.40;;;;;;;11.50;100.00;101463.94;4903282;29;20044;-93
2022/10/02 05:50:37;;;;;;;90.50;21.48;;;;;;;11.52;100.00;101455.63;4918683;29;20036;-94
2022/10/02 05:55:36;;;;;;;76.68;18.20;;;;;;;11.55;100.00;101457.03;4967661;23;20036;-96
2022/10/02 05:58:35;;;;;;;79.43;17.15;;;;;;;11.63;100.00;101472.69;4924377;28;20016;-96
2022/10/02 06:01:21;;;;;;;79.72;16.55;;;;;;;11.39;100.00;101437.22;4923375;29;20021;-94
2022/10/02 06:04:07;;;;;;;70.13;15.70;;;;;;;11.54;100.00;101460.78;4933176;29;20095;-95
2022/10/02 06:06:41;;;;;;;70.37;14.93;;;;;;;11.49;100.00;101456.94;4900548;29;20773;-94
2022/10/02 06:09:24;;;;;;;63.47;14.18;;;;;;;11.55;100.00;101470.44;4917870;29;20042;-91
2022/10/02 06:12:06;;;;;;;62.70;13.07;;;;;;;11.60;100.00;101473.19;4915849;29;20519;-96
2022/10/02 06:14:37;;;;;;;65.90;12.38;;;;;;;11.54;100.00;101466.13;4916567;29;20067;-96
2022/10/02 06:17:10;;;;;;;61.33;12.48;;;;;;;11.56;100.00;101472.88;4903451;29;20064;-94
2022/10/02 06:20:00;;;;;;;63.22;11.85;;;;;;;11.62;100.00;101482.63;4880239;29;20044;-95
2022/10/02 06:22:33;;;;;;;57.10;10.88;;;;;;;11.66;100.00;101482.94;4899574;29;20033;-95
2022/10/02 06:25:23;;;;;;;79.22;12.45;;;;;;;11.78;100.00;101501.59;4899707;29;20025;-94
2022/10/02 06:28:01;;;;;;;56.80;11.05;;;;;;;11.85;100.00;101502.25;4913516;29;20064;-94
2022/10/02 06:30:30;;;;;;;49.43;10.87;;;;;;;11.88;100.00;101496.34;4901505;29;20032;-95
2022/10/02 06:33:22;;;;;;;68.80;11.30;;;;;;;11.91;100.00;101509.28;4906880;29;20324;-93
2022/10/02 06:36:01;;;;;;;51.22;9.98;;;;;;;11.93;100.00;101499.09;4917382;29;20032;-96
2022/10/02 06:38:41;;;;;;;60.45;10.48;;;;;;;11.96;100.00;101505.84;4904763;29;20048;-95
2022/10/02 06:41:25;;;;;;;56.05;9.93;;;;;;;12.03;100.00;101509.19;4906948;29;20072;-95
2022/10/02 06:43:57;;;;;;;68.35;9.38;;;;;;;11.99;100.00;101493.84;4921584;29;20036;-94
2022/10/02 06:46:40;;;;;;;61.05;9.73;;;;;;;12.08;100.00;101519.19;4919590;29;20052;-94
2022/10/02 06:49:30;;;;;;;59.63;8.57;;;;;;;12.11;100.00;101516.00;4913429;29;20052;-94
2022/10/02 06:52:29;;;;;;;48.95;9.43;;;;;;;12.18;100.00;101534.59;4913518;29;20392;-94
2022/10/02 06:55:19;;;;;;;51.83;8.50;;;;;;;12.19;100.00;101539.75;4907832;29;20031;-95
2022/10/02 06:57:55;;;;;;;59.43;8.83;;;;;;;12.20;100.00;101541.38;4903214;29;20040;-94
2022/10/02 07:00:21;;;;;;;55.37;9.63;;;;;;;12.17;100.00;101525.75;4902079;29;20293;-94
2022/10/02 07:03:15;;;;;;;52.25;9.40;;;;;;;12.30;100.00;101551.44;4916448;29;20396;-94
2022/10/02 07:05:52;;;;;;;60.53;10.23;;;;;;;12.31;100.00;101546.84;4916754;29;20058;-94
2022/10/02 07:08:52;;;;;;;61.25;9.93;;;;;;;12.33;100.00;101550.91;4916269;29;20080;-91
2022/10/02 07:11:48;;;;;;;54.08;10.63;;;;;;;12.37;100.00;101546.66;4910022;29;20119;-92
2022/10/02 07:14:40;;;;;;;50.95;10.40;;;;;;;12.32;100.00;101533.19;4896190;29;20037;-91
2022/10/02 07:17:31;;;;;;;65.10;11.03;;;;;;;12.51;100.00;101552.44;4897096;29;20032;-92
2022/10/02 07:20:05;;;;;;;55.20;10.90;;;;;;;12.54;100.00;101549.25;4915199;29;20869;-91
2022/10/02 07:22:42;;;;;;;59.70;11.60;;;;;;;12.49;100.00;101530.38;4913959;29;20088;-92
2022/10/02 07:25:31;;;;;;;46.53;11.07;;;;;;;12.65;100.00;101557.41;4916165;29;20560;-92
2022/10/02 07:28:18;;;;;;;47.30;12.23;;;;;;;12.63;100.00;101562.22;4910436;29;20096;-91
2022/10/02 07:30:57;;;;;;;48.45;12.60;;;;;;;12.57;100.00;101550.63;4905537;29;20080;-90
2022/10/02 07:33:38;;;;;;;56.70;14.15;;;;;;;12.67;100.00;101557.97;4888745;29;20521;-90
2022/10/02 07:36:28;;;;;;;53.17;12.98;;;;;;;12.70;100.00;101555.59;4896559;29;20028;-91
2022/10/02 07:39:15;;;;;;;61.25;14.75;;;;;;;12.76;100.00;101558.31;4897459;29;20393;-94
2022/10/02 07:42:16;;;;;;;59.83;14.07;;;;;;;12.79;100.00;101563.19;4895650;29;20576;-92
2022/10/02 07:45:06;;;;;;;45.07;14.57;;;;;;;12.93;100.00;101564.41;4886778;29;20048;-91
2022/10/02 07:48:19;;;;;;;64.63;15.77;;;;;;;13.00;100.00;101569.56;4914763;29;20287;-92
2022/10/02 07:50:59;;;;;;;48.63;15.77;;;;;;;13.10;100.00;101571.53;4888499;29;20045;-94
2022/10/02 07:53:44;;;;;;;53.88;16.95;;;;;;;13.14;100.00;101562.72;4914462;29;20235;-93
2022/10/02 07:56:18;;;;;;;47.83;16.67;;;;;;;13.16;100.00;101574.00;4916223;29;20091;-94
2022/10/02 07:58:51;;;;;;;46.55;16.23;;;;;;;13.25;100.00;101576.22;4913669;29;20028;-96
2022/10/02 08:01:21;;;;;;;44.17;15.43;;;;;;;13.29;100.00;101571.97;4916640;29;20043;-96
2022/10/02 08:03:55;;;;;;;42.47;15.77;;;;;;;13.27;100.00;101569.50;4905540;29;20067;-92
2022/10/02 08:06:23;;;;;;;52.40;15.57;;;;;;;13.33;100.00;101583.81;4913276;29;20032;-90
2022/10/02 08:09:02;;;;;;;49.23;15.63;;;;;;;13.37;100.00;101578.75;4900784;29;20025;-92
2022/10/02 08:11:32;;;;;;;42.23;14.70;;;;;;;13.52;100.00;101591.53;4879181;29;20285;-93
2022/10/02 08:14:07;;;;;;;44.33;16.08;;;;;;;13.57;100.00;101594.25;4897942;29;20503;-91
2022/10/02 08:16:42;;;;;;;42.45;14.23;;;;;;;13.64;100.00;101602.94;4909270;29;20075;-90
2022/10/02 08:19:15;;;;;;;46.55;15.02;;;;;;;13.73;100.00;101606.75;4911699;29;20660;-95
2022/10/02 08:21:46;;;;;;;41.05;14.35;;;;;;;13.83;100.00;101608.69;4882643;29;20032;-93
2022/10/02 08:24:21;;;;;;;36.60;13.65;;;;;;;13.88;100.00;101608.72;4905658;29;20032;-93
2022/10/02 08:27:04;;;;;;;32.92;13.55;;;;;;;13.99;100.00;101616.84;4881174;29;20040;-90
2022/10/02 08:29:39;;;;;;;39.38;14.18;;;;;;;13.90;100.00;101603.88;4903273;29;20060;-94
2022/10/02 08:32:10;;;;;;;32.10;12.82;;;;;;;13.93;100.00;101618.72;4903705;29;20481;-92
2022/10/02 08:34:36;;;;;;;37.00;13.33;;;;;;;13.98;100.00;101632.22;4914408;29;20030;-93
2022/10/02 08:37:23;;;;;;;33.23;13.93;;;;;;;13.97;100.00;101635.97;4925278;29;20304;-91
2022/10/02 08:40:07;;;;;;;29.27;12.52;;;;;;;13.99;100.00;101630.31;4919354;29;20046;-94
2022/10/02 08:43:07;;;;;;;34.38;13.48;;;;;;;14.15;100.00;101636.63;4919073;29;20047;-89
2022/10/02 08:45:55;;;;;;;34.95;13.93;;;;;;;14.17;100.00;101639.88;4890899;29;20525;-91
2022/10/02 08:48:54;;;;;;;31.77;12.38;;;;;;;14.22;100.00;101643.38;4905356;29;20040;-91
2022/10/02 08:51:52;;;;;;;32.92;12.52;;;;;;;14.27;100.00;101626.41;4873568;29;20047;-90
2022/10/02 08:54:37;;;;;;;29.90;12.50;;;;;;;14.35;100.00;101644.78;4904915;29;20033;-90
2022/10/02 08:57:38;;;;;;;31.83;12.48;;;;;;;14.41;100.00;101661.00;4908911;29;20083;-91
2022/10/02 09:00:09;;;;;;;32.58;12.05;;;;;;;14.45;100.00;101657.50;4907902;29;20036;-91
2022/10/02 09:03:10;;;;;;;27.97;11.30;;;;;;;14.42;100.00;101649.16;4897022;29;20036;-92
2022/10/02 09:05:47;;;;;;;29.20;11.13;;;;;;;14.37;100.00;101660.69;4904622;29;20332;-93
2022/10/02 09:08:32;;;;;;;21.52;10.02;;;;;;;14.34;100.00;101664.75;4904262;29;20120;-95
2022/10/02 09:11:27;;;;;;;23.77;9.18;;;;;;;14.19;100.00;101660.06;4899082;29;20180;-92
2022/10/02 09:14:16;;;;;;;24.65;9.05;;;;;;;14.08;100.00;101659.22;4899264;29;20036;-90
2022/10/02 09:17:15;;;;;;;19.25;8.30;;;;;;;14.04;100.00;101657.31;4904452;29;20036;-91
2022/10/02 09:20:18;;;;;;;20.95;7.90;;;;;;;14.07;100.00;101656.78;4897850;29;20075;-91
2022/10/02 09:23:05;;;;;;;25.95;9.35;;;;;;;14.29;100.00;101670.09;4899246;29;20028;-91
2022/10/02 09:25:58;;;;;;;27.27;9.63;;;;;;;14.49;100.00;101672.09;4895998;29;20047;-91
2022/10/02 09:28:32;;;;;;;22.88;8.73;;;;;;;14.57;100.00;101665.38;4920233;29;20071;-91
2022/10/02 09:31:23;;;;;;;20.37;6.13;;;;;;;14.63;100.00;101663.50;4913662;29;20092;-90
2022/10/02 09:34:07;;;;;;;19.70;6.30;;;;;;;14.54;100.00;101655.13;4911208;29;20664;-90
2022/10/02 09:37:18;;;;;;;24.15;5.45;;;;;;;14.63;100.00;101668.91;4907275;29;20036;-93
2022/10/02 09:40:04;;;;;;;13.23;4.75;;;;;;;14.62;100.00;101672.66;4890254;29;20047;-95
2022/10/02 09:42:55;;;;;;;16.60;5.07;;;;;;;14.79;100.00;101686.00;4884932;29;20544;-91
2022/10/02 09:45:45;;;;;;;20.10;5.75;;;;;;;14.91;100.00;101697.34;4905910;29;20036;-90
2022/10/02 09:48:52;;;;;;;20.42;5.30;;;;;;;14.97;100.00;101687.38;4912969;29;20043;-91
2022/10/02 09:51:46;;;;;;;17.48;5.47;;;;;;;14.96;100.00;101693.84;4899542;29;20218;-91
2022/10/02 09:54:23;;;;;;;18.63;5.40;;;;;;;14.75;100.00;101685.69;4912906;29;20043;-91
2022/10/02 09:57:10;;;;;;;29.45;6.25;;;;;;;14.78;100.00;101689.75;4916967;29;20507;-92
2022/10/02 10:00:20;;;;;;;16.63;5.10;;;;;;;14.69;100.00;101697.56;4918657;29;20035;-91
2022/10/02 10:03:04;;;;;;;22.30;5.60;;;;;;;14.58;100.00;101699.38;4877550;29;20312;-91
2022/10/02 10:05:49;;;;;;;25.58;5.30;;;;;;;14.41;100.00;101683.38;4915460;29;20417;-91
2022/10/02 10:08:39;;;;;;;21.42;5.40;;;;;;;14.50;100.00;101700.69;4908430;29;20053;-92
2022/10/02 10:11:10;;;;;;;20.95;4.88;;;;;;;14.57;100.00;101692.34;4902805;29;20112;-92
2022/10/02 10:13:50;;;;;;;17.98;4.47;;;;;;;14.61;100.00;101693.41;4911406;29;20040;-93
2022/10/02 10:16:33;;;;;;;25.80;4.57;;;;;;;14.65;100.00;101699.91;4930266;29;20040;-96
2022/10/02 10:19:37;;;;;;;19.83;4.72;;;;;;;14.51;100.00;101675.34;5313660;23;20092;-96
2022/10/02 10:22:11;;;;;;;24.38;4.80;;;;;;;14.64;100.00;101670.53;4921017;29;20032;-94
2022/10/02 10:25:14;;;;;;;19.02;5.00;;;;;;;15.18;100.00;101719.81;4921620;29;20040;-96
2022/10/02 10:28:04;;;;;;;24.77;4.20;;;;;;;15.39;100.00;101720.63;4903474;29;20065;-96
2022/10/02 10:31:12;;;;;;;24.03;3.67;;;;;;;15.33;100.00;101724.44;4901449;29;20384;-94
2022/10/02 10:33:52;;;;;;;21.40;3.42;;;;;;;15.26;100.00;101741.69;4884101;29;20055;-92
2022/10/02 10:40:08;;;;;;;21.25;3.05;;;;;;;15.31;100.00;101753.59;4860697;29;20128;-95
2022/10/02 10:42:53;;;;;;;19.90;3.00;;;;;;;15.20;100.00;101748.16;4908051;29;20056;-96
2022/10/02 10:45:42;;;;;;;13.40;2.30;;;;;;;15.04;100.00;101757.28;4889623;29;20437;-92
2022/10/02 10:48:19;;;;;;;22.70;3.15;;;;;;;14.89;100.00;101747.25;4894314;29;20147;-95
2022/10/02 10:50:59;;;;;;;17.25;2.60;;;;;;;14.90;100.00;101757.78;4875550;29;20109;-92
2022/10/02 10:54:03;;;;;;;17.53;2.80;;;;;;;15.06;100.00;101765.94;4893997;29;20453;-95
2022/10/02 10:56:48;;;;;;;19.37;2.90;;;;;;;15.41;100.00;101753.59;4895331;29;20297;-94
2022/10/02 10:59:48;;;;;;;15.88;2.85;;;;;;;15.64;100.00;101746.84;4881699;29;20037;-94
2022/10/02 11:02:54;;;;;;;15.57;2.75;;;;;;;16.00;100.00;101754.97;4880028;29;20032;-93
2022/10/02 11:05:31;;;;;;;12.57;2.15;;;;;;;16.26;100.00;101748.72;4879985;29;20060;-94
2022/10/02 11:08:19;;;;;;;16.48;2.70;;;;;;;16.43;100.00;101746.50;4894578;29;20029;-89
2022/10/02 11:10:58;;;;;;;17.23;2.78;;;;;;;16.48;100.00;101743.81;4887579;29;20461;-89
2022/10/02 11:13:58;;;;;;;12.98;2.53;;;;;;;16.59;100.00;101744.56;4891919;29;20056;-90
2022/10/02 11:16:42;;;;;;;16.60;2.90;;;;;;;16.53;100.00;101740.25;4888167;29;20397;-89
2022/10/02 11:19:15;;;;;;;13.73;2.70;;;;;;;16.54;100.00;101736.47;4901646;29;20035;-88
2022/10/02 11:21:57;;;;;;;19.03;2.83;;;;;;;16.73;100.00;101742.09;4905628;29;20174;-89
2022/10/02 11:25:07;;;;;;;11.70;3.03;;;;;;;17.11;100.00;101755.19;4897375;29;20285;-89
2022/10/02 11:27:50;;;;;;;18.98;3.20;;;;;;;17.55;100.00;101764.38;4878387;29;20041;-88
2022/10/02 11:30:19;;;;;;;18.00;3.13;;;;;;;17.74;100.00;101769.94;4897779;29;20591;-89
2022/10/02 11:32:44;;;;;;;16.45;3.08;;;;;;;17.81;100.00;101778.53;4893609;29;20033;-89
2022/10/02 11:35:22;;;;;;;14.60;3.10;;;;;;;17.91;99.63;101776.88;4892940;29;20039;-88
2022/10/02 11:38:03;;;;;;;14.05;2.78;;;;;;;17.90;100.00;101778.75;4883810;29;20029;-86
2022/10/02 11:41:10;;;;;;;16.27;2.95;;;;;;;17.68;100.00;101774.59;4892771;29;20470;-87
2022/10/02 11:44:09;;;;;;;13.23;2.80;;;;;;;17.33;100.00;101771.06;4890619;29;20029;-87
2022/10/02 11:47:03;;;;;;;12.48;3.15;;;;;;;17.01;100.00;101780.41;4886008;29;20033;-88
2022/10/02 11:50:02;;;;;;;9.82;2.63;;;;;;;16.75;100.00;101777.81;4904183;29;20036;-87
2022/10/02 11:52:45;;;;;;;17.90;3.10;;;;;;;16.48;100.00;101773.56;4891189;29;20043;-87
2022/10/02 11:55:55;;;;;;;21.37;3.40;;;;;;;16.41;100.00;101777.63;4895889;29;20300;-87
2022/10/02 11:58:44;;;;;;;17.88;3.10;;;;;;;16.35;100.00;101776.84;4807682;29;20499;-87
2022/10/02 12:01:37;;;;;;;18.88;3.20;;;;;;;16.31;100.00;101768.47;4817919;29;20077;-87
2022/10/02 12:04:47;;;;;;;16.58;3.22;;;;;;;16.24;100.00;101772.53;4868619;29;20510;-87
2022/10/02 12:07:23;;;;;;;16.77;3.05;;;;;;;16.29;100.00;101761.69;4841114;29;20052;-87
2022/10/02 12:10:13;;;;;;;16.23;2.67;;;;;;;16.56;100.00;101766.75;4891217;29;20029;-87
2022/10/02 12:12:51;;;;;;;14.27;3.08;;;;;;;16.71;100.00;101774.03;4893693;29;20682;-89
2022/10/02 12:15:32;;;;;;;14.33;3.17;;;;;;;16.83;100.00;101783.72;4891848;29;20036;-89
2022/10/02 12:18:13;;;;;;;13.43;2.90;;;;;;;16.98;100.00;101783.69;4878350;29;20373;-91
2022/10/02 12:27:08;;;;;;;15.30;3.17;;;;;;;17.22;100.00;101791.97;4895120;29;20107;-90